sensor_id;sensor_type;location;lat;lon;timestamp;pressure;altitude;pressure_sealevel;temperature
65290;BMP180;51893;59.754;10.110;2023-03-23T00:01:21;99068.60;;;1.70
65290;BMP180;51893;59.754;10.110;2023-03-23T00:03:51;99068.80;;;1.60
65290;BMP180;51893;59.754;10.110;2023-03-23T00:06:20;99070.80;;;1.70
65290;BMP180;51893;59.754;10.110;2023-03-23T00:08:50;99066.40;;;1.80
65290;BMP180;51893;59.754;10.110;2023-03-23T00:11:26;99065.20;;;1.80
65290;BMP180;51893;59.754;10.110;2023-03-23T00:13:58;99053.40;;;1.80
65290;BMP180;51893;59.754;10.110;2023-03-23T00:16:33;99058.20;;;1.80
65290;BMP180;51893;59.754;10.110;2023-03-23T00:19:09;99063.60;;;1.76
65290;BMP180;51893;59.754;10.110;2023-03-23T00:21:42;99058.00;;;1.70
65290;BMP180;51893;59.754;10.110;2023-03-23T00:24:14;99064.20;;;1.70
65290;BMP180;51893;59.754;10.110;2023-03-23T00:26:47;99064.80;;;1.74
65290;BMP180;51893;59.754;10.110;2023-03-23T00:29:22;99062.40;;;1.74
65290;BMP180;51893;59.754;10.110;2023-03-23T00:31:52;99066.80;;;1.80
65290;BMP180;51893;59.754;10.110;2023-03-23T00:34:22;99056.20;;;1.70
65290;BMP180;51893;59.754;10.110;2023-03-23T00:36:56;99054.40;;;1.60
65290;BMP180;51893;59.754;10.110;2023-03-23T00:39:25;99067.60;;;1.60
65290;BMP180;51893;59.754;10.110;2023-03-23T00:41:55;99063.40;;;1.60
65290;BMP180;51893;59.754;10.110;2023-03-23T00:44:31;99057.80;;;1.60
65290;BMP180;51893;59.754;10.110;2023-03-23T00:47:00;99068.40;;;1.60
65290;BMP180;51893;59.754;10.110;2023-03-23T00:49:27;99058.80;;;1.60
65290;BMP180;51893;59.754;10.110;2023-03-23T00:51:57;99064.40;;;1.60
65290;BMP180;51893;59.754;10.110;2023-03-23T00:54:25;99063.60;;;1.60
65290;BMP180;51893;59.754;10.110;2023-03-23T00:56:53;99067.20;;;1.50
65290;BMP180;51893;59.754;10.110;2023-03-23T00:59:21;99060.20;;;1.50
65290;BMP180;51893;59.754;10.110;2023-03-23T01:01:49;99066.80;;;1.50
65290;BMP180;51893;59.754;10.110;2023-03-23T01:04:16;99057.20;;;1.50
65290;BMP180;51893;59.754;10.110;2023-03-23T01:06:48;99053.20;;;1.50
65290;BMP180;51893;59.754;10.110;2023-03-23T01:09:18;99043.80;;;1.50
65290;BMP180;51893;59.754;10.110;2023-03-23T01:11:50;99054.80;;;1.52
65290;BMP180;51893;59.754;10.110;2023-03-23T01:14:19;99050.20;;;1.50
65290;BMP180;51893;59.754;10.110;2023-03-23T01:16:46;99056.60;;;1.50
65290;BMP180;51893;59.754;10.110;2023-03-23T01:19:13;99057.00;;;1.50
65290;BMP180;51893;59.754;10.110;2023-03-23T01:21:43;99061.60;;;1.50
65290;BMP180;51893;59.754;10.110;2023-03-23T01:24:10;99059.40;;;1.50
65290;BMP180;51893;59.754;10.110;2023-03-23T01:26:38;99062.20;;;1.50
65290;BMP180;51893;59.754;10.110;2023-03-23T01:29:05;99064.20;;;1.50
65290;BMP180;51893;59.754;10.110;2023-03-23T01:31:34;99060.40;;;1.50
65290;BMP180;51893;59.754;10.110;2023-03-23T01:34:03;99069.80;;;1.50
65290;BMP180;51893;59.754;10.110;2023-03-23T01:36:31;99061.40;;;1.50
65290;BMP180;51893;59.754;10.110;2023-03-23T01:39:02;99052.60;;;1.50
65290;BMP180;51893;59.754;10.110;2023-03-23T01:41:31;99061.60;;;1.34
65290;BMP180;51893;59.754;10.110;2023-03-23T01:45:11;99067.60;;;1.30
65290;BMP180;51893;59.754;10.110;2023-03-23T01:46:55;99063.80;;;1.34
65290;BMP180;51893;59.754;10.110;2023-03-23T01:49:38;99060.00;;;1.40
65290;BMP180;51893;59.754;10.110;2023-03-23T01:52:24;99080.00;;;1.50
65290;BMP180;51893;59.754;10.110;2023-03-23T01:54:56;99066.20;;;1.60
65290;BMP180;51893;59.754;10.110;2023-03-23T01:57:26;99073.40;;;1.64
65290;BMP180;51893;59.754;10.110;2023-03-23T01:59:55;99077.60;;;1.70
65290;BMP180;51893;59.754;10.110;2023-03-23T02:02:27;99069.20;;;1.80
65290;BMP180;51893;59.754;10.110;2023-03-23T02:04:59;99065.80;;;1.90
65290;BMP180;51893;59.754;10.110;2023-03-23T02:07:31;99063.60;;;2.00
65290;BMP180;51893;59.754;10.110;2023-03-23T02:09:59;99054.80;;;2.10
65290;BMP180;51893;59.754;10.110;2023-03-23T02:12:28;99055.00;;;2.20
65290;BMP180;51893;59.754;10.110;2023-03-23T02:14:55;99050.60;;;2.30
65290;BMP180;51893;59.754;10.110;2023-03-23T02:17:33;99058.60;;;2.30
65290;BMP180;51893;59.754;10.110;2023-03-23T02:32:12;99069.00;;;2.30
65290;BMP180;51893;59.754;10.110;2023-03-23T02:35:07;99073.00;;;2.40
65290;BMP180;51893;59.754;10.110;2023-03-23T02:37:48;99069.00;;;2.40
65290;BMP180;51893;59.754;10.110;2023-03-23T02:40:32;99062.00;;;2.50
65290;BMP180;51893;59.754;10.110;2023-03-23T02:43:07;99061.40;;;2.50
65290;BMP180;51893;59.754;10.110;2023-03-23T02:45:37;99062.20;;;2.50
65290;BMP180;51893;59.754;10.110;2023-03-23T02:48:07;99057.80;;;2.50
65290;BMP180;51893;59.754;10.110;2023-03-23T02:50:37;99053.80;;;2.60
65290;BMP180;51893;59.754;10.110;2023-03-23T02:53:10;99051.20;;;2.60
65290;BMP180;51893;59.754;10.110;2023-03-23T02:55:42;99048.80;;;2.60
65290;BMP180;51893;59.754;10.110;2023-03-23T02:58:18;99052.20;;;2.60
65290;BMP180;51893;59.754;10.110;2023-03-23T03:00:45;99051.80;;;2.52
65290;BMP180;51893;59.754;10.110;2023-03-23T03:03:21;99057.20;;;2.50
65290;BMP180;51893;59.754;10.110;2023-03-23T03:06:20;99056.80;;;2.50
65290;BMP180;51893;59.754;10.110;2023-03-23T03:09:29;99058.20;;;2.50
65290;BMP180;51893;59.754;10.110;2023-03-23T03:12:07;99061.00;;;2.50
65290;BMP180;51893;59.754;10.110;2023-03-23T03:14:53;99054.80;;;2.50
65290;BMP180;51893;59.754;10.110;2023-03-23T03:17:26;99053.00;;;2.40
65290;BMP180;51893;59.754;10.110;2023-03-23T03:20:03;99056.40;;;2.40
65290;BMP180;51893;59.754;10.110;2023-03-23T03:22:37;99052.40;;;2.50
65290;BMP180;51893;59.754;10.110;2023-03-23T03:25:07;99065.40;;;2.50
65290;BMP180;51893;59.754;10.110;2023-03-23T03:27:35;99072.40;;;2.60
65290;BMP180;51893;59.754;10.110;2023-03-23T03:30:08;99074.40;;;2.64
65290;BMP180;51893;59.754;10.110;2023-03-23T03:32:46;99082.00;;;2.70
65290;BMP180;51893;59.754;10.110;2023-03-23T03:35:15;99076.60;;;2.80
65290;BMP180;51893;59.754;10.110;2023-03-23T03:37:43;99080.40;;;2.90
65290;BMP180;51893;59.754;10.110;2023-03-23T03:40:19;99083.20;;;2.90
65290;BMP180;51893;59.754;10.110;2023-03-23T03:42:46;99079.60;;;2.94
65290;BMP180;51893;59.754;10.110;2023-03-23T03:45:20;99082.40;;;2.98
65290;BMP180;51893;59.754;10.110;2023-03-23T03:47:47;99079.40;;;3.00
65290;BMP180;51893;59.754;10.110;2023-03-23T03:50:15;99079.80;;;2.98
65290;BMP180;51893;59.754;10.110;2023-03-23T03:52:43;99078.00;;;2.90
65290;BMP180;51893;59.754;10.110;2023-03-23T03:55:11;99081.40;;;2.90
65290;BMP180;51893;59.754;10.110;2023-03-23T03:57:38;99077.60;;;2.90
65290;BMP180;51893;59.754;10.110;2023-03-23T04:00:08;99077.40;;;2.90
65290;BMP180;51893;59.754;10.110;2023-03-23T04:02:45;99073.80;;;2.90
65290;BMP180;51893;59.754;10.110;2023-03-23T04:05:18;99069.60;;;2.96
65290;BMP180;51893;59.754;10.110;2023-03-23T04:07:46;99074.60;;;3.00
65290;BMP180;51893;59.754;10.110;2023-03-23T04:10:18;99084.20;;;3.00
65290;BMP180;51893;59.754;10.110;2023-03-23T04:12:49;99082.20;;;3.00
65290;BMP180;51893;59.754;10.110;2023-03-23T04:15:16;99086.40;;;3.00
65290;BMP180;51893;59.754;10.110;2023-03-23T04:17:43;99083.60;;;3.00
65290;BMP180;51893;59.754;10.110;2023-03-23T04:20:11;99075.40;;;3.00
65290;BMP180;51893;59.754;10.110;2023-03-23T04:22:46;99079.40;;;2.98
65290;BMP180;51893;59.754;10.110;2023-03-23T04:25:18;99087.40;;;3.00
65290;BMP180;51893;59.754;10.110;2023-03-23T04:27:49;99085.80;;;3.00
65290;BMP180;51893;59.754;10.110;2023-03-23T04:30:22;99083.80;;;3.00
65290;BMP180;51893;59.754;10.110;2023-03-23T04:32:51;99091.80;;;3.00
65290;BMP180;51893;59.754;10.110;2023-03-23T04:35:25;99093.00;;;3.00
65290;BMP180;51893;59.754;10.110;2023-03-23T04:37:53;99091.20;;;3.00
65290;BMP180;51893;59.754;10.110;2023-03-23T04:40:22;99092.80;;;3.00
65290;BMP180;51893;59.754;10.110;2023-03-23T04:42:49;99094.40;;;3.00
65290;BMP180;51893;59.754;10.110;2023-03-23T04:45:21;99091.80;;;3.00
65290;BMP180;51893;59.754;10.110;2023-03-23T04:47:51;99092.80;;;3.00
65290;BMP180;51893;59.754;10.110;2023-03-23T04:50:28;99100.00;;;2.92
65290;BMP180;51893;59.754;10.110;2023-03-23T04:53:03;99106.00;;;2.90
65290;BMP180;51893;59.754;10.110;2023-03-23T04:55:34;99103.40;;;2.90
65290;BMP180;51893;59.754;10.110;2023-03-23T04:58:11;99115.20;;;2.80
65290;BMP180;51893;59.754;10.110;2023-03-23T05:00:42;99119.20;;;2.70
65290;BMP180;51893;59.754;10.110;2023-03-23T05:03:20;99129.40;;;2.60
65290;BMP180;51893;59.754;10.110;2023-03-23T05:05:47;99122.60;;;2.50
65290;BMP180;51893;59.754;10.110;2023-03-23T05:08:21;99121.60;;;2.50
65290;BMP180;51893;59.754;10.110;2023-03-23T05:10:54;99122.80;;;2.40
65290;BMP180;51893;59.754;10.110;2023-03-23T05:13:22;99128.60;;;2.30
65290;BMP180;51893;59.754;10.110;2023-03-23T05:15:49;99126.60;;;2.30
65290;BMP180;51893;59.754;10.110;2023-03-23T05:18:16;99125.80;;;2.30
65290;BMP180;51893;59.754;10.110;2023-03-23T05:20:43;99118.20;;;2.28
65290;BMP180;51893;59.754;10.110;2023-03-23T05:23:13;99120.00;;;2.30
65290;BMP180;51893;59.754;10.110;2023-03-23T05:25:40;99118.00;;;2.30
65290;BMP180;51893;59.754;10.110;2023-03-23T05:28:10;99126.40;;;2.38
65290;BMP180;51893;59.754;10.110;2023-03-23T05:30:39;99128.60;;;2.30
65290;BMP180;51893;59.754;10.110;2023-03-23T05:33:07;99134.00;;;2.26
65290;BMP180;51893;59.754;10.110;2023-03-23T05:35:33;99124.00;;;2.30
65290;BMP180;51893;59.754;10.110;2023-03-23T05:38:00;99118.80;;;2.30
65290;BMP180;51893;59.754;10.110;2023-03-23T05:40:28;99129.60;;;2.40
65290;BMP180;51893;59.754;10.110;2023-03-23T05:42:55;99134.60;;;2.50
65290;BMP180;51893;59.754;10.110;2023-03-23T05:45:25;99133.80;;;2.50
65290;BMP180;51893;59.754;10.110;2023-03-23T05:47:53;99137.20;;;2.50
65290;BMP180;51893;59.754;10.110;2023-03-23T05:50:20;99138.60;;;2.50
65290;BMP180;51893;59.754;10.110;2023-03-23T05:52:47;99142.80;;;2.52
65290;BMP180;51893;59.754;10.110;2023-03-23T05:55:14;99149.40;;;2.60
65290;BMP180;51893;59.754;10.110;2023-03-23T05:57:41;99145.20;;;2.64
65290;BMP180;51893;59.754;10.110;2023-03-23T06:00:10;99145.00;;;2.72
65290;BMP180;51893;59.754;10.110;2023-03-23T06:02:48;99138.20;;;2.80
65290;BMP180;51893;59.754;10.110;2023-03-23T06:05:16;99139.40;;;2.86
65290;BMP180;51893;59.754;10.110;2023-03-23T06:07:43;99143.60;;;2.90
65290;BMP180;51893;59.754;10.110;2023-03-23T06:10:10;99144.40;;;3.00
65290;BMP180;51893;59.754;10.110;2023-03-23T06:12:40;99149.40;;;3.00
65290;BMP180;51893;59.754;10.110;2023-03-23T06:15:08;99146.40;;;3.00
65290;BMP180;51893;59.754;10.110;2023-03-23T06:17:36;99141.80;;;3.10
65290;BMP180;51893;59.754;10.110;2023-03-23T06:20:05;99148.00;;;3.10
65290;BMP180;51893;59.754;10.110;2023-03-23T06:22:37;99150.80;;;3.20
65290;BMP180;51893;59.754;10.110;2023-03-23T06:25:07;99152.20;;;3.20
65290;BMP180;51893;59.754;10.110;2023-03-23T06:27:35;99155.00;;;3.30
65290;BMP180;51893;59.754;10.110;2023-03-23T06:30:03;99156.00;;;3.40
65290;BMP180;51893;59.754;10.110;2023-03-23T06:32:37;99166.00;;;3.44
65290;BMP180;51893;59.754;10.110;2023-03-23T06:35:05;99164.20;;;3.50
65290;BMP180;51893;59.754;10.110;2023-03-23T06:37:36;99160.40;;;3.56
65290;BMP180;51893;59.754;10.110;2023-03-23T06:40:06;99152.60;;;3.60
65290;BMP180;51893;59.754;10.110;2023-03-23T06:42:34;99148.00;;;3.70
65290;BMP180;51893;59.754;10.110;2023-03-23T06:45:05;99140.60;;;3.70
65290;BMP180;51893;59.754;10.110;2023-03-23T06:47:34;99147.00;;;3.72
65290;BMP180;51893;59.754;10.110;2023-03-23T06:50:02;99150.80;;;3.80
65290;BMP180;51893;59.754;10.110;2023-03-23T06:52:28;99150.00;;;3.90
65290;BMP180;51893;59.754;10.110;2023-03-23T06:54:55;99156.60;;;3.90
65290;BMP180;51893;59.754;10.110;2023-03-23T06:57:22;99155.00;;;3.90
65290;BMP180;51893;59.754;10.110;2023-03-23T06:59:49;99147.20;;;4.00
65290;BMP180;51893;59.754;10.110;2023-03-23T07:02:16;99147.40;;;4.00
65290;BMP180;51893;59.754;10.110;2023-03-23T07:04:45;99145.60;;;4.10
65290;BMP180;51893;59.754;10.110;2023-03-23T07:07:12;99140.20;;;4.10
65290;BMP180;51893;59.754;10.110;2023-03-23T07:09:41;99143.60;;;4.20
65290;BMP180;51893;59.754;10.110;2023-03-23T07:12:09;99145.60;;;4.20
65290;BMP180;51893;59.754;10.110;2023-03-23T07:14:36;99142.60;;;4.20
65290;BMP180;51893;59.754;10.110;2023-03-23T07:17:03;99146.80;;;4.28
65290;BMP180;51893;59.754;10.110;2023-03-23T07:19:31;99141.40;;;4.30
65290;BMP180;51893;59.754;10.110;2023-03-23T07:21:59;99143.00;;;4.40
65290;BMP180;51893;59.754;10.110;2023-03-23T07:24:27;99144.20;;;4.50
65290;BMP180;51893;59.754;10.110;2023-03-23T07:26:54;99142.60;;;4.50
65290;BMP180;51893;59.754;10.110;2023-03-23T07:29:22;99135.80;;;4.50
65290;BMP180;51893;59.754;10.110;2023-03-23T07:31:49;99133.60;;;4.50
65290;BMP180;51893;59.754;10.110;2023-03-23T07:34:17;99127.20;;;4.50
65290;BMP180;51893;59.754;10.110;2023-03-23T07:36:45;99126.20;;;4.60
65290;BMP180;51893;59.754;10.110;2023-03-23T07:39:13;99129.60;;;4.60
65290;BMP180;51893;59.754;10.110;2023-03-23T07:41:40;99129.80;;;4.60
65290;BMP180;51893;59.754;10.110;2023-03-23T07:44:07;99129.60;;;4.62
65290;BMP180;51893;59.754;10.110;2023-03-23T07:46:35;99129.20;;;4.70
65290;BMP180;51893;59.754;10.110;2023-03-23T07:49:04;99127.80;;;4.70
65290;BMP180;51893;59.754;10.110;2023-03-23T07:51:32;99128.60;;;4.80
65290;BMP180;51893;59.754;10.110;2023-03-23T07:54:04;99125.60;;;4.80
65290;BMP180;51893;59.754;10.110;2023-03-23T07:56:32;99127.20;;;4.90
65290;BMP180;51893;59.754;10.110;2023-03-23T07:58:59;99125.40;;;4.90
65290;BMP180;51893;59.754;10.110;2023-03-23T08:01:26;99120.60;;;4.90
65290;BMP180;51893;59.754;10.110;2023-03-23T08:03:53;99123.00;;;5.00
65290;BMP180;51893;59.754;10.110;2023-03-23T08:06:24;99129.60;;;5.10
65290;BMP180;51893;59.754;10.110;2023-03-23T08:08:52;99125.00;;;5.10
65290;BMP180;51893;59.754;10.110;2023-03-23T08:11:20;99112.40;;;5.20
65290;BMP180;51893;59.754;10.110;2023-03-23T08:13:49;99104.20;;;5.20
65290;BMP180;51893;59.754;10.110;2023-03-23T08:16:16;99104.60;;;5.28
65290;BMP180;51893;59.754;10.110;2023-03-23T08:18:46;99109.40;;;5.30
65290;BMP180;51893;59.754;10.110;2023-03-23T08:21:13;99108.80;;;5.40
65290;BMP180;51893;59.754;10.110;2023-03-23T08:23:40;99102.00;;;5.40
65290;BMP180;51893;59.754;10.110;2023-03-23T08:26:09;99104.20;;;5.48
65290;BMP180;51893;59.754;10.110;2023-03-23T08:28:37;99097.80;;;5.50
65290;BMP180;51893;59.754;10.110;2023-03-23T08:31:10;99100.40;;;5.60
65290;BMP180;51893;59.754;10.110;2023-03-23T08:33:39;99101.00;;;5.70
65290;BMP180;51893;59.754;10.110;2023-03-23T08:36:08;99086.40;;;5.70
65290;BMP180;51893;59.754;10.110;2023-03-23T08:38:36;99080.40;;;5.70
65290;BMP180;51893;59.754;10.110;2023-03-23T08:41:06;99084.60;;;5.80
65290;BMP180;51893;59.754;10.110;2023-03-23T08:43:36;99095.20;;;5.80
65290;BMP180;51893;59.754;10.110;2023-03-23T08:46:05;99101.60;;;5.70
65290;BMP180;51893;59.754;10.110;2023-03-23T08:48:38;99092.20;;;5.70
65290;BMP180;51893;59.754;10.110;2023-03-23T08:51:06;99097.00;;;5.70
65290;BMP180;51893;59.754;10.110;2023-03-23T08:53:34;99095.20;;;5.70
65290;BMP180;51893;59.754;10.110;2023-03-23T08:56:10;99081.60;;;5.74
65290;BMP180;51893;59.754;10.110;2023-03-23T08:58:40;99071.00;;;5.80
65290;BMP180;51893;59.754;10.110;2023-03-23T09:01:08;99069.00;;;5.80
65290;BMP180;51893;59.754;10.110;2023-03-23T09:03:37;99072.20;;;5.90
65290;BMP180;51893;59.754;10.110;2023-03-23T09:06:08;99070.20;;;5.90
65290;BMP180;51893;59.754;10.110;2023-03-23T09:08:39;99075.20;;;6.00
65290;BMP180;51893;59.754;10.110;2023-03-23T09:11:09;99086.80;;;6.00
65290;BMP180;51893;59.754;10.110;2023-03-23T09:13:38;99095.20;;;6.00
65290;BMP180;51893;59.754;10.110;2023-03-23T09:16:10;99091.00;;;6.00
65290;BMP180;51893;59.754;10.110;2023-03-23T09:18:37;99088.80;;;6.00
65290;BMP180;51893;59.754;10.110;2023-03-23T09:21:07;99090.00;;;6.00
65290;BMP180;51893;59.754;10.110;2023-03-23T09:23:34;99087.00;;;6.00
65290;BMP180;51893;59.754;10.110;2023-03-23T09:26:03;99085.00;;;6.00
65290;BMP180;51893;59.754;10.110;2023-03-23T09:28:31;99077.00;;;6.00
65290;BMP180;51893;59.754;10.110;2023-03-23T09:31:01;99082.20;;;6.00
65290;BMP180;51893;59.754;10.110;2023-03-23T09:33:28;99077.20;;;6.02
65290;BMP180;51893;59.754;10.110;2023-03-23T09:35:59;99076.20;;;6.10
65290;BMP180;51893;59.754;10.110;2023-03-23T09:38:29;99067.80;;;6.10
65290;BMP180;51893;59.754;10.110;2023-03-23T09:44:45;99076.20;;;6.30
65290;BMP180;51893;59.754;10.110;2023-03-23T09:47:29;99077.60;;;6.30
65290;BMP180;51893;59.754;10.110;2023-03-23T09:50:17;99078.80;;;6.30
65290;BMP180;51893;59.754;10.110;2023-03-23T09:52:55;99081.40;;;6.30
65290;BMP180;51893;59.754;10.110;2023-03-23T09:55:24;99075.00;;;6.30
65290;BMP180;51893;59.754;10.110;2023-03-23T09:58:18;99082.00;;;6.40
65290;BMP180;51893;59.754;10.110;2023-03-23T10:03:40;99078.80;;;6.30
65290;BMP180;51893;59.754;10.110;2023-03-23T10:06:13;99074.00;;;6.30
65290;BMP180;51893;59.754;10.110;2023-03-23T10:09:13;99069.20;;;6.40
65290;BMP180;51893;59.754;10.110;2023-03-23T10:14:55;99065.20;;;6.40
65290;BMP180;51893;59.754;10.110;2023-03-23T10:20:55;99074.80;;;6.40
65290;BMP180;51893;59.754;10.110;2023-03-23T10:23:53;99063.20;;;6.38
65290;BMP180;51893;59.754;10.110;2023-03-23T10:28:57;99056.80;;;6.30
65290;BMP180;51893;59.754;10.110;2023-03-23T10:31:58;99053.60;;;6.30
65290;BMP180;51893;59.754;10.110;2023-03-23T10:34:41;99055.60;;;6.30
65290;BMP180;51893;59.754;10.110;2023-03-23T10:37:18;99060.20;;;6.40
65290;BMP180;51893;59.754;10.110;2023-03-23T10:39:56;99058.00;;;6.40
65290;BMP180;51893;59.754;10.110;2023-03-23T10:42:38;99061.40;;;6.40
65290;BMP180;51893;59.754;10.110;2023-03-23T10:45:20;99063.80;;;6.40
65290;BMP180;51893;59.754;10.110;2023-03-23T10:48:20;99059.80;;;6.40
65290;BMP180;51893;59.754;10.110;2023-03-23T10:51:10;99061.40;;;6.40
65290;BMP180;51893;59.754;10.110;2023-03-23T10:53:46;99062.20;;;6.40
65290;BMP180;51893;59.754;10.110;2023-03-23T10:56:38;99066.20;;;6.40
65290;BMP180;51893;59.754;10.110;2023-03-23T10:59:21;99064.60;;;6.40
65290;BMP180;51893;59.754;10.110;2023-03-23T11:01:55;99056.40;;;6.40
65290;BMP180;51893;59.754;10.110;2023-03-23T11:04:23;99057.00;;;6.50
65290;BMP180;51893;59.754;10.110;2023-03-23T11:06:59;99053.20;;;6.46
65290;BMP180;51893;59.754;10.110;2023-03-23T11:09:39;99050.00;;;6.40
65290;BMP180;51893;59.754;10.110;2023-03-23T11:12:18;99044.60;;;6.40
65290;BMP180;51893;59.754;10.110;2023-03-23T11:14:47;99042.60;;;6.50
65290;BMP180;51893;59.754;10.110;2023-03-23T11:17:27;99048.40;;;6.50
65290;BMP180;51893;59.754;10.110;2023-03-23T11:19:55;99038.00;;;6.50
65290;BMP180;51893;59.754;10.110;2023-03-23T11:22:32;99032.60;;;6.50
65290;BMP180;51893;59.754;10.110;2023-03-23T11:25:03;99028.80;;;6.50
65290;BMP180;51893;59.754;10.110;2023-03-23T11:27:34;99028.20;;;6.50
65290;BMP180;51893;59.754;10.110;2023-03-23T11:30:27;99027.60;;;6.50
65290;BMP180;51893;59.754;10.110;2023-03-23T11:33:01;99020.00;;;6.50
65290;BMP180;51893;59.754;10.110;2023-03-23T11:35:30;99017.20;;;6.40
65290;BMP180;51893;59.754;10.110;2023-03-23T11:37:58;99022.00;;;6.30
65290;BMP180;51893;59.754;10.110;2023-03-23T11:40:30;99023.00;;;6.20
65290;BMP180;51893;59.754;10.110;2023-03-23T11:43:13;99016.00;;;6.10
65290;BMP180;51893;59.754;10.110;2023-03-23T11:48:44;99031.20;;;6.00
65290;BMP180;51893;59.754;10.110;2023-03-23T11:54:37;99030.40;;;6.00
65290;BMP180;51893;59.754;10.110;2023-03-23T11:57:12;99020.60;;;6.00
65290;BMP180;51893;59.754;10.110;2023-03-23T11:59:40;99019.20;;;6.10
65290;BMP180;51893;59.754;10.110;2023-03-23T12:05:41;99013.80;;;6.10
65290;BMP180;51893;59.754;10.110;2023-03-23T12:08:21;99018.80;;;6.10
65290;BMP180;51893;59.754;10.110;2023-03-23T12:14:20;99009.60;;;6.10
65290;BMP180;51893;59.754;10.110;2023-03-23T12:22:52;99002.00;;;6.20
65290;BMP180;51893;59.754;10.110;2023-03-23T12:31:19;98993.40;;;6.40
65290;BMP180;51893;59.754;10.110;2023-03-23T12:45:45;98984.80;;;6.60
65290;BMP180;51893;59.754;10.110;2023-03-23T12:48:27;98969.80;;;6.60
65290;BMP180;51893;59.754;10.110;2023-03-23T12:54:03;98972.00;;;6.60
65290;BMP180;51893;59.754;10.110;2023-03-23T13:00:23;98966.40;;;6.64
65290;BMP180;51893;59.754;10.110;2023-03-23T13:05:53;98948.40;;;6.70
65290;BMP180;51893;59.754;10.110;2023-03-23T13:09:00;98951.40;;;6.70
65290;BMP180;51893;59.754;10.110;2023-03-23T13:11:37;98950.40;;;6.72
65290;BMP180;51893;59.754;10.110;2023-03-23T13:18:02;98941.00;;;6.80
65290;BMP180;51893;59.754;10.110;2023-03-23T13:23:25;98939.80;;;6.60
65290;BMP180;51893;59.754;10.110;2023-03-23T13:25:56;98937.00;;;6.52
65290;BMP180;51893;59.754;10.110;2023-03-23T13:28:33;98941.60;;;6.50
65290;BMP180;51893;59.754;10.110;2023-03-23T13:31:04;98944.40;;;6.44
65290;BMP180;51893;59.754;10.110;2023-03-23T13:33:43;98940.20;;;6.40
65290;BMP180;51893;59.754;10.110;2023-03-23T13:36:25;98934.40;;;6.38
65290;BMP180;51893;59.754;10.110;2023-03-23T13:38:52;98930.60;;;6.38
65290;BMP180;51893;59.754;10.110;2023-03-23T13:41:22;98926.60;;;6.40
65290;BMP180;51893;59.754;10.110;2023-03-23T13:43:49;98928.20;;;6.40
65290;BMP180;51893;59.754;10.110;2023-03-23T13:48:48;98929.20;;;6.40
65290;BMP180;51893;59.754;10.110;2023-03-23T13:57:02;98913.60;;;6.40
65290;BMP180;51893;59.754;10.110;2023-03-23T13:59:58;98918.00;;;6.30
65290;BMP180;51893;59.754;10.110;2023-03-23T14:02:42;98920.40;;;6.30
65290;BMP180;51893;59.754;10.110;2023-03-23T14:08:36;98915.20;;;6.20
65290;BMP180;51893;59.754;10.110;2023-03-23T14:11:19;98909.20;;;6.20
65290;BMP180;51893;59.754;10.110;2023-03-23T14:14:06;98909.40;;;6.20
65290;BMP180;51893;59.754;10.110;2023-03-23T14:16:43;98903.00;;;6.28
65290;BMP180;51893;59.754;10.110;2023-03-23T14:19:15;98899.80;;;6.30
65290;BMP180;51893;59.754;10.110;2023-03-23T14:21:54;98891.60;;;6.40
65290;BMP180;51893;59.754;10.110;2023-03-23T14:24:29;98889.00;;;6.40
65290;BMP180;51893;59.754;10.110;2023-03-23T14:27:09;98883.20;;;6.40
65290;BMP180;51893;59.754;10.110;2023-03-23T14:29:36;98878.80;;;6.40
65290;BMP180;51893;59.754;10.110;2023-03-23T14:32:08;98875.80;;;6.40
65290;BMP180;51893;59.754;10.110;2023-03-23T14:34:37;98870.80;;;6.40
65290;BMP180;51893;59.754;10.110;2023-03-23T14:37:04;98870.80;;;6.40
65290;BMP180;51893;59.754;10.110;2023-03-23T14:39:37;98882.00;;;6.48
65290;BMP180;51893;59.754;10.110;2023-03-23T14:42:26;98888.40;;;6.50
65290;BMP180;51893;59.754;10.110;2023-03-23T14:44:54;98882.20;;;6.50
65290;BMP180;51893;59.754;10.110;2023-03-23T14:47:30;98872.60;;;6.50
65290;BMP180;51893;59.754;10.110;2023-03-23T14:50:01;98874.80;;;6.58
65290;BMP180;51893;59.754;10.110;2023-03-23T14:52:34;98883.40;;;6.64
65290;BMP180;51893;59.754;10.110;2023-03-23T14:55:31;98888.80;;;6.70
65290;BMP180;51893;59.754;10.110;2023-03-23T14:58:12;98889.00;;;6.70
65290;BMP180;51893;59.754;10.110;2023-03-23T15:01:07;98888.80;;;6.70
65290;BMP180;51893;59.754;10.110;2023-03-23T15:04:17;98894.60;;;6.70
65290;BMP180;51893;59.754;10.110;2023-03-23T15:07:02;98892.80;;;6.80
65290;BMP180;51893;59.754;10.110;2023-03-23T15:09:31;98892.60;;;6.80
65290;BMP180;51893;59.754;10.110;2023-03-23T15:12:02;98893.20;;;6.88
65290;BMP180;51893;59.754;10.110;2023-03-23T15:14:47;98884.20;;;6.90
65290;BMP180;51893;59.754;10.110;2023-03-23T15:17:27;98883.00;;;7.00
65290;BMP180;51893;59.754;10.110;2023-03-23T15:19:56;98888.40;;;7.00
65290;BMP180;51893;59.754;10.110;2023-03-23T15:22:31;98892.00;;;7.00
65290;BMP180;51893;59.754;10.110;2023-03-23T15:25:24;98887.60;;;7.00
65290;BMP180;51893;59.754;10.110;2023-03-23T15:28:19;98894.40;;;7.04
65290;BMP180;51893;59.754;10.110;2023-03-23T15:30:48;98894.80;;;7.10
65290;BMP180;51893;59.754;10.110;2023-03-23T15:33:16;98892.80;;;7.10
65290;BMP180;51893;59.754;10.110;2023-03-23T15:35:49;98891.60;;;7.10
65290;BMP180;51893;59.754;10.110;2023-03-23T15:38:34;98895.60;;;7.10
65290;BMP180;51893;59.754;10.110;2023-03-23T15:41:05;98892.00;;;7.04
65290;BMP180;51893;59.754;10.110;2023-03-23T15:43:49;98892.00;;;7.00
65290;BMP180;51893;59.754;10.110;2023-03-23T15:48:52;98897.00;;;7.00
65290;BMP180;51893;59.754;10.110;2023-03-23T15:51:25;98895.80;;;7.10
65290;BMP180;51893;59.754;10.110;2023-03-23T15:53:54;98902.20;;;7.00
65290;BMP180;51893;59.754;10.110;2023-03-23T15:56:23;98904.00;;;7.00
65290;BMP180;51893;59.754;10.110;2023-03-23T15:58:52;98908.20;;;6.94
65290;BMP180;51893;59.754;10.110;2023-03-23T16:01:27;98911.20;;;7.00
65290;BMP180;51893;59.754;10.110;2023-03-23T16:04:03;98905.20;;;7.00
65290;BMP180;51893;59.754;10.110;2023-03-23T16:06:34;98906.60;;;7.10
65290;BMP180;51893;59.754;10.110;2023-03-23T16:09:06;98909.80;;;7.04
65290;BMP180;51893;59.754;10.110;2023-03-23T16:11:34;98913.40;;;7.00
65290;BMP180;51893;59.754;10.110;2023-03-23T16:14:02;98918.00;;;7.00
65290;BMP180;51893;59.754;10.110;2023-03-23T16:16:38;98919.20;;;7.00